LTCB Airport Information

Runway Information
Airport Frequencies
Airport Navaids
Airport Weather Information & NOTAM
ADDS - METARS form results

(2331 UTC 31 May 2020)
Data provider http://aviationweather.gov/metar/data/
 
Forecast for: LTCB (ORDU , TR)
Text: TAF LTCB 312240Z 0100/0109 VRB02KT 9999 BKN090
Forecast period: 0000 to 0600 UTC 01 June 2020
Forecast type: FROM: standard forecast or significant change
Winds: variable direction winds at 2 MPH (2 knots; 1.0 m/s)
Visibility: 6 or more miles 10+ km)
Ceiling: 9000 feet AGL
Clouds: broken clouds at 9000 feet AGL
Weather: no significant weather forecast for this period
Text: BECMG 0106/0109 -SHRA SCT008 BKN033
Forecast period: 0600 to 0900 UTC 01 June 2020
Forecast type: BECOMING: Conditions expected to become as follows by 0900 UTC 01 June 2020
Winds: variable direction winds at 2 MPH (2 knots; 1.0 m/s)
Visibility: 6 or more miles 10+ km)
Ceiling: 3300 feet AGL
Clouds: scattered clouds at 800 feet AGL
broken clouds at 3300 feet AGL
Weather: -SHRA  (light rain showers)